Tiempo atmosférico en la estación meteorológica de Brozas , Cáceres (411 m.)



Fecha
DESCASC
Temp. máxima en grados centígrados (hora)
DESCASC
Temp. mínima en grados centígrados (hora)
DESCASC
Temp. media en grados centígrados
DESCASC
Racha de viento máxima en m/sg (hora)
DESCASC
Velocidad máxima media en intervalos de 10 minutos(hora)
DESCASC
Precipitaciones diarias en mm
DESCASC
Precipitaciones de 00:00 a 06:00 en mm
DESCASC
Precipitaciones de 06:00 a 12:00 en mm
DESCASC
Precipitaciones de 12:00 a 18:00 en mm
DESCASC
Precipitaciones de 18:00 a 24:00 en mm
DESCASC
18-02-2018 13.6 (16:10) 4.8 (07:40) 9.2 11.11 (08:00) 8.06 (08:00) 0 0 0 0 0
17-02-2018 15.5 (16:00) 5.1 (08:50) 10.3 8.06 (22:40) 5.83 (22:40) 0 0 0 0 0
16-02-2018 17.1 (15:10) 9.9 (05:40) 13.5 5.28 (15:20) 3.61 (21:00) 0 0 0 0 0
15-02-2018 15.3 (17:00) 8.7 (00:00) 12 4.44 (05:10) 3.61 (04:40) 0 0 0 0 0
14-02-2018 13.1 (14:40) 6.2 (00:00) 9.7 8.61 (13:10) 6.67 (11:30) 0 0 0 0 0
13-02-2018 10.2 (14:00) 0.1 (00:00) 5.1 10 (14:00) 7.78 (13:50) 0 0 0 0 0
12-02-2018 12.3 (16:20) 3.6 (00:00) 8 10.28 (13:20) 7.78 (12:40) 0.2 0.2 0 0 0
11-02-2018 15.9 (15:50) 4.6 (00:00) 10.2 11.11 (20:30) 8.89 (20:30) 0 0 0 0 0
10-02-2018 11.6 (16:40) 1.2 (00:00) 6.4 10.83 (16:40) 8.61 (16:40) 0 0 0 0 0
09-02-2018 9 (17:30) 1.1 (00:00) 5.1 6.11 (15:20) 3.89 (14:10) 0 0 0 0 0
08-02-2018 8.6 (16:40) -1.3 (-00:0) 3.7 7.22 (15:40) 5 (05:40) 0 0 0 0 0
07-02-2018 8.9 (15:10) -1.7 (-00:0) 3.6 15.28 (16:20) 10.83 (16:20) 0 0 0 0 0
06-02-2018 8.2 (15:40) 0.6 (00:00) 4.4 16.94 (12:20) 13.33 (12:20) 0 0 0 0 0
05-02-2018 8.8 (14:20) 0.6 (00:00) 4.7 14.72 (15:00) 10.28 (14:20) 0 0 0 0 0
04-02-2018 9.5 (15:00) 2.5 (00:00) 6 14.72 (15:30) 10.83 (15:10) 0 0 0 0 0
03-02-2018 11 (15:30) -0.5 (-00:0) 5.3 9.72 (19:30) 7.22 (19:30) 0 0 0 0 0
02-02-2018 9.5 (16:00) 0.6 (00:00) 5.1 11.39 (13:20) 8.89 (00:40) 0 0 0 0 0
01-02-2018 12.4 (14:20) 3.4 (00:00) 7.9 14.72 (20:40) 11.11 (19:50) 0 0 0 0 0
31-01-2018 14.2 (15:50) 3.8 (00:00) 9 10 (10:50) 7.22 (10:20) 0 0 0 0 0
30-01-2018 14.3 (14:50) 4.7 (00:00) 9.5 11.39 (10:30) 8.33 (10:20) 0 0 0 0 0
29-01-2018 14.8 (15:10) 7.2 (00:00) 11 15.83 (06:10) 11.11 (06:10) 0 0 0 0 0
28-01-2018 13.4 (16:10) 2.1 (00:00) 7.7 18.33 (17:00) 11.39 (15:10) 0 0 0 0 0
27-01-2018 11.2 (16:10) 2.5 (00:00) 6.8 14.44 (18:10) 10.28 (18:10) 0 0 0 0 0
26-01-2018 10.4 (14:40) 1.3 (00:00) 5.8 15 (13:10) 11.39 (16:10) 0.2 0 0 0.2 0
25-01-2018 9.1 (16:10) 3.5 (00:00) 6.3 13.89 (16:50) 10 (18:00) 6 0.2 4.2 1.6 0
24-01-2018 12.2 (17:20) 2.8 (00:00) 7.5 3.89 (02:00) 3.61 (02:00) 0 0 0 0 0
23-01-2018 13.4 (15:30) 1.5 (00:00) 7.4 5.28 (12:20) 3.89 (12:10) 0 0 0 0 0
22-01-2018 15.6 (17:00) 5.1 (00:00) 10.4 5.83 (19:10) 5 (19:10) 0 0 0 0 0

Gráficas

Temp. máximas Temp. mínimas Temp. medias Precipitaciones Rachas de viento máximas Velocidades máximas media en intervalos de 10 minutos

Datos horarios

Fecha y hora oficial Temperatura (ºC) Velocidad del viento (km/h) Dirección del viento Racha (km/h) Dirección de racha Precipitación (mm) Presión (hPa) Tendencia (hPa) Humedad (%)
2018-02-20 23:00:00 10.3 24 Nordeste 36 Nordeste 0 -- -- 57
2018-02-20 22:00:00 10.5 23 Nordeste 36 Norte 0 -- -- 58
2018-02-20 21:00:00 11.5 27 Norte 36 Nordeste 0 -- -- 55
2018-02-20 20:00:00 12.2 22 Nordeste 30 Nordeste 0 -- -- 54
2018-02-20 19:00:00 13.6 15 Nordeste 33 Norte 0 -- -- 54
2018-02-20 18:00:00 16.5 22 Norte 31 Norte 0 -- -- 45
2018-02-20 17:00:00 17.1 20 Norte 32 Norte 0 -- -- 43
2018-02-20 16:00:00 17.1 19 Norte 33 Nordeste 0 -- -- 46
2018-02-20 15:00:00 16.8 20 Nordeste 31 Norte 0 -- -- 48
2018-02-20 14:00:00 15.8 14 Norte 33 Nordeste 0 -- -- 56
2018-02-20 13:00:00 14.5 22 Nordeste 30 Nordeste 0 -- -- 59
2018-02-20 12:00:00 13 18 Norte 28 Nordeste 0 -- -- 63
2018-02-20 11:00:00 11.8 14 Norte 22 Norte 0 -- -- 66
2018-02-20 10:00:00 9.5 17 Norte 22 Norte 0 -- -- 69
2018-02-20 09:00:00 5.2 0 Calma 16 Norte 0 -- -- 86
2018-02-20 08:00:00 3.7 12 Norte 15 Norte 0 -- -- 88
2018-02-20 07:00:00 5.7 12 Norte 21 Nordeste 0 -- -- 80
2018-02-20 06:00:00 6.5 16 Nordeste 19 Nordeste 0 -- -- 78
2018-02-20 05:00:00 7 16 Nordeste 21 Nordeste 0 -- -- 76
2018-02-20 04:00:00 7.6 17 Nordeste 23 Nordeste 0 -- -- 74
2018-02-20 03:00:00 8 17 Nordeste 21 Nordeste 0 -- -- 73
2018-02-20 02:00:00 8.2 16 Nordeste 21 Nordeste 0 -- -- 72
2018-02-20 01:00:00 8.1 17 Nordeste 25 Nordeste 0 -- -- 72
2018-02-20 00:00:00 8.2 16 Nordeste 21 Nordeste 0 -- -- 71
2018-02-19 23:00:00 8.5 15 Norte 21 Nordeste 0 -- -- 69
2018-02-19 22:00:00 8.8 16 Norte 20 Norte 0 -- -- 69
2018-02-19 21:00:00 9.7 14 Norte 22 Nordeste 0 -- -- 66
2018-02-19 20:00:00 11 15 Nordeste 25 Norte 0 -- -- 63
2018-02-19 19:00:00 12.6 7 Norte 14 Nordeste 0 -- -- 53
2018-02-19 18:00:00 14.4 8 Norte 17 Nordeste 0 -- -- 51
2018-02-19 17:00:00 15.1 10 Nordeste 16 Nordeste 0 -- -- 48
2018-02-19 16:00:00 15.5 11 Nordeste 20 Nordeste 0 -- -- 46
2018-02-19 15:00:00 14.9 10 Nordeste 21 Nordeste 0 -- -- 50
2018-02-19 14:00:00 14.4 16 Nordeste 24 Nordeste 0 -- -- 53
2018-02-19 13:00:00 13.8 15 Nordeste 25 Nordeste 0 -- -- 57
2018-02-19 12:00:00 12.9 17 Nordeste 27 Nordeste 0 -- -- 58
2018-02-19 11:00:00 11 17 Nordeste 25 Nordeste 0 -- -- 63
2018-02-19 10:00:00 9.9 13 Nordeste 22 Nordeste 0 -- -- 67
2018-02-19 09:00:00 7.9 14 Nordeste 18 Nordeste 0 -- -- 72
2018-02-19 08:00:00 8.3 13 Nordeste 19 Nordeste 0 -- -- 68
2018-02-19 07:00:00 7.6 13 Nordeste 17 Nordeste 0 -- -- 70
2018-02-19 06:00:00 7.7 13 Nordeste 17 Nordeste 0 -- -- 71
2018-02-19 05:00:00 7.9 13 Norte 17 Norte 0 -- -- 72
2018-02-19 04:00:00 8 14 Nordeste 18 Nordeste 0 -- -- 71
2018-02-19 03:00:00 8.5 13 Nordeste 17 Nordeste 0 -- -- 69
2018-02-19 02:00:00 8 14 Nordeste 19 Este 0 -- -- 71
2018-02-19 01:00:00 8 15 Nordeste 21 Nordeste 0 -- -- 68
2018-02-19 00:00:00 8.2 16 Nordeste 24 Nordeste 0 -- -- 69
2018-02-18 23:00:00 8.9 15 Nordeste 21 Nordeste 0 -- -- 67
2018-02-18 22:00:00 8.7 14 Norte 23 Nordeste 0 -- -- 66
2018-02-18 21:00:00 9.5 18 Nordeste 25 Nordeste 0 -- -- 63
2018-02-18 20:00:00 10.4 7 Norte 9 Norte 0 -- -- 47
2018-02-18 19:00:00 11.8 6 Nordeste 12 Nordeste 0 -- -- 41
2018-02-18 18:00:00 12.9 12 Nordeste 22 Nordeste 0 -- -- 42
2018-02-18 17:00:00 13.5 14 Nordeste 22 Nordeste 0 -- -- 39
2018-02-18 16:00:00 13.5 17 Nordeste 31 Nordeste 0 -- -- 42
2018-02-18 15:00:00 12.5 21 Nordeste 31 Nordeste 0 -- -- 46
2018-02-18 14:00:00 10.9 19 Nordeste 31 Nordeste 0 -- -- 54
2018-02-18 13:00:00 12 23 Nordeste 30 Nordeste 0 -- -- 51
2018-02-18 12:00:00 10.9 20 Nordeste 31 Nordeste 0 -- -- 58
2018-02-18 11:00:00 8.9 16 Nordeste 30 Este 0 -- -- 64
2018-02-18 10:00:00 7.3 21 Nordeste 32 Nordeste 0 -- -- 68
2018-02-18 09:00:00 5.2 25 Nordeste 36 Nordeste 0 -- -- 75
2018-02-18 08:00:00 4.9 29 Nordeste 40 Nordeste 0 -- -- 75
2018-02-18 07:00:00 4.9 24 Nordeste 32 Nordeste 0 -- -- 77
2018-02-18 06:00:00 5.4 19 Nordeste 30 Nordeste 0 -- -- 76
2018-02-18 05:00:00 6 21 Nordeste 30 Nordeste 0 -- -- 74
2018-02-18 04:00:00 6.7 21 Nordeste 36 Nordeste 0 -- -- 72
2018-02-18 03:00:00 7.3 21 Nordeste 28 Nordeste 0 -- -- 72
2018-02-18 02:00:00 7.9 21 Nordeste 28 Nordeste 0 -- -- 72
2018-02-18 01:00:00 7.9 21 Nordeste 27 Nordeste 0 -- -- 75
2018-02-18 00:00:00 8.1 18 Nordeste 28 Nordeste 0 -- -- 75
2018-02-17 23:00:00 8.7 18 Norte 29 Nordeste 0 -- -- 74
2018-02-17 22:00:00 8.9 16 Nordeste 22 Norte 0 -- -- 75
2018-02-17 21:00:00 9.5 14 Nordeste 18 Nordeste 0 -- -- 74
2018-02-17 20:00:00 11.3 8 Norte 8 Norte 0 -- -- 69
2018-02-17 19:00:00 12.1 7 Noroeste 12 Norte 0 -- -- 69
2018-02-17 18:00:00 13.3 13 Norte 20 Norte 0 -- -- 68
2018-02-17 17:00:00 14.7 14 Norte 22 Norte 0 -- -- 62
2018-02-17 16:00:00 15.5 12 Norte 20 Noroeste 0 -- -- 64
2018-02-17 15:00:00 14 12 Norte 17 Norte 0 -- -- 68
2018-02-17 14:00:00 13.3 10 Norte 21 Norte 0 -- -- 73
2018-02-17 13:00:00 12.6 18 Norte 22 Norte 0 -- -- 77
2018-02-17 12:00:00 12 12 Norte 18 Norte 0 -- -- 83
2018-02-17 11:00:00 10.8 12 Norte 19 Nordeste 0 -- -- 85
2018-02-17 10:00:00 8.4 13 Nordeste 17 Nordeste 0 -- -- 99
2018-02-17 09:00:00 5.3 9 Norte 11 Norte 0 -- -- 100
2018-02-17 08:00:00 5.7 7 Noroeste 9 Noroeste 0 -- -- 99
2018-02-17 07:00:00 6.8 8 Noroeste 13 Norte 0 -- -- 99
2018-02-17 06:00:00 6.5 12 Noroeste 13 Noroeste 0 -- -- 98
2018-02-17 05:00:00 6.5 11 Noroeste 13 Noroeste 0 -- -- 95
2018-02-17 04:00:00 8.1 5 Norte 10 Noroeste 0 -- -- 94
2018-02-17 03:00:00 7.6 9 Noroeste 14 Noroeste 0 -- -- 94
2018-02-17 02:00:00 9.1 10 Noroeste 13 Noroeste 0 -- -- 87
2018-02-17 01:00:00 9.9 6 Noroeste 8 Noroeste 0 -- -- 83
2018-02-17 00:00:00 10.4 5 Sur 27 Sudoeste 0 -- -- 81
2018-02-16 23:00:00 11.1 7 Este 12 Este 0 -- -- 79
2018-02-16 22:00:00 11 10 Este 13 Nordeste 0 -- -- 80
2018-02-16 21:00:00 10.9 13 Nordeste 15 Nordeste 0 -- -- 81
2018-02-16 20:00:00 12.1 11 Nordeste 14 Nordeste 0 -- -- 73
2018-02-16 19:00:00 15.2 2 Norte 8 Noroeste 0 -- -- 60
2018-02-16 18:00:00 16.6 5 Noroeste 14 Oeste 0 -- -- 56
2018-02-16 17:00:00 16.9 5 Noroeste 16 Noroeste 0 -- -- 56
2018-02-16 16:00:00 16.8 7 Noroeste 19 Oeste 0 -- -- 57
2018-02-16 15:00:00 16.8 8 Oeste 16 Oeste 0 -- -- 60
2018-02-16 14:00:00 15.1 7 Noroeste 14 Noroeste 0 -- -- 68
2018-02-16 13:00:00 16.3 5 Norte 16 Sudeste 0 -- -- 65
2018-02-16 12:00:00 16.1 5 Sur 14 Este 0 -- -- 67
2018-02-16 11:00:00 14.7 7 Este 11 Este 0 -- -- 74
2018-02-16 10:00:00 11.8 2 Este 6 Sudeste 0 -- -- 85
2018-02-16 09:00:00 10.8 5 Sudeste 6 Sudeste 0 -- -- 84
2018-02-16 08:00:00 10.1 3 Sudeste 6 Sudeste 0 -- -- 88
2018-02-16 07:00:00 10.3 3 Este 6 Noroeste 0 -- -- 88
2018-02-16 06:00:00 10.1 4 Sudeste 6 Sudeste 0 -- -- 89
2018-02-16 05:00:00 10.4 5 Sudeste 7 Sudeste 0 -- -- 86
2018-02-16 04:00:00 10.8 4 Este 5 Nordeste 0 -- -- 86
2018-02-16 03:00:00 10 3 Norte 9 Nordeste 0 -- -- 90
2018-02-16 02:00:00 11.2 7 Este 9 Este 0 -- -- 84
2018-02-16 01:00:00 11.4 2 Este 8 Nordeste 0 -- -- 85
2018-02-16 00:00:00 11.6 4 Sudeste 8 Nordeste 0 -- -- 85
2018-02-15 23:00:00 11.6 7 Nordeste 10 Nordeste 0 -- -- 84
2018-02-15 22:00:00 11.6 9 Nordeste 13 Nordeste 0 -- -- 86
2018-02-15 21:00:00 12.1 5 Nordeste 6 Nordeste 0 -- -- 82
2018-02-15 20:00:00 12.6 0 Calma 3 Norte 0 -- -- 79
2018-02-15 19:00:00 13.2 2 Norte 8 Oeste 0 -- -- 79
2018-02-15 18:00:00 14.3 7 Oeste 13 Sudoeste 0 -- -- 74
2018-02-15 17:00:00 15.3 5 Oeste 12 Sudoeste 0 -- -- 72
2018-02-15 16:00:00 14.1 7 Oeste 15 Oeste 0 -- -- 76
2018-02-15 15:00:00 13.6 8 Oeste 13 Oeste 0 -- -- 78
2018-02-15 14:00:00 13.6 9 Oeste 16 Sudoeste 0 -- -- 78
2018-02-15 13:00:00 13.4 9 Sur 15 Sur 0 -- -- 80
2018-02-15 12:00:00 12.3 7 Sur 14 Sur 0 -- -- 84
2018-02-15 11:00:00 11.2 11 Sur 14 Sur 0 -- -- 91
2018-02-15 10:00:00 9.8 11 Sur 14 Sur 0 -- -- 96
2018-02-15 09:00:00 9 10 Sur 13 Sur 0 -- -- 97
2018-02-15 08:00:00 8.7 9 Sur 11 Sur 0 -- -- 97
2018-02-15 07:00:00 8.7 8 Sur 10 Sudoeste 0 -- -- 95
2018-02-15 06:00:00 8.7 9 Sur 16 Sur 0 -- -- 96
2018-02-15 05:00:00 8.8 12 Sur 15 Sur 0 -- -- 95
2018-02-15 04:00:00 8.8 10 Sur 12 Sudoeste 0 -- -- 93
2018-02-15 03:00:00 9.3 9 Sudoeste 12 Sudoeste 0 -- -- 91
2018-02-15 02:00:00 9.6 10 Oeste 15 Oeste 0 -- -- 92
2018-02-15 01:00:00 9 10 Oeste 13 Oeste 0 -- -- 91
2018-02-15 00:00:00 9.6 9 Sudoeste 14 Oeste 0 -- -- 86
2018-02-14 23:00:00 9.6 11 Sudoeste 14 Oeste 0 -- -- 87
2018-02-14 22:00:00 10.5 12 Oeste 17 Oeste 0 -- -- 83
2018-02-14 21:00:00 11.2 14 Oeste 18 Oeste 0 -- -- 80
2018-02-14 20:00:00 11.6 14 Oeste 19 Oeste 0 -- -- 77
2018-02-14 19:00:00 11.8 12 Oeste 19 Oeste 0 -- -- 76
2018-02-14 18:00:00 12.2 11 Oeste 25 Oeste 0 -- -- 73
2018-02-14 17:00:00 12.3 10 Sudoeste 21 Sudoeste 0 -- -- 73
2018-02-14 16:00:00 12.3 19 Sudoeste 30 Oeste 0 -- -- 71
2018-02-14 15:00:00 12.7 19 Oeste 26 Oeste 0 -- -- 66
2018-02-14 14:00:00 12.3 16 Sudoeste 31 Sudoeste 0 -- -- 70
2018-02-14 13:00:00 12.1 21 Sudoeste 30 Sudoeste 0 -- -- 74
2018-02-14 12:00:00 10 19 Sudoeste 29 Sudoeste 0 -- -- 86
2018-02-14 11:00:00 8.8 22 Sur 28 Sudoeste 0 -- -- 91
2018-02-14 10:00:00 8 21 Sudoeste 26 Sudoeste 0 -- -- 93
2018-02-14 09:00:00 7 14 Sudoeste 19 Sur 0 -- -- 95
2018-02-14 08:00:00 6.2 12 Sudoeste 17 Sudoeste 0 -- -- 94
2018-02-14 07:00:00 6.5 9 Sur 14 Sudoeste 0 -- -- 93
2018-02-14 06:00:00 6.7 11 Sudoeste 15 Sudoeste 0 -- -- 92
2018-02-14 05:00:00 6.9 13 Sudoeste 20 Sudoeste 0 -- -- 91
2018-02-14 04:00:00 7.6 12 Sudoeste 19 Oeste 0 -- -- 89
2018-02-14 03:00:00 7.8 14 Sudoeste 21 Oeste 0 -- -- 88
2018-02-14 02:00:00 8 15 Sudoeste 23 Sudoeste 0 -- -- 87
2018-02-14 01:00:00 8.3 15 Sudoeste 26 Oeste 0 -- -- 85
2018-02-14 00:00:00 8.6 17 Oeste 24 Oeste 0 -- -- 84
2018-02-13 23:00:00 8.5 16 Sudoeste 23 Oeste 0 -- -- 83
2018-02-13 22:00:00 8.7 16 Sudoeste 25 Oeste 0 -- -- 80
2018-02-13 21:00:00 8.9 21 Sudoeste 28 Oeste 0 -- -- 79
2018-02-13 20:00:00 9.1 21 Oeste 29 Oeste 0 -- -- 78
2018-02-13 19:00:00 9.3 20 Oeste 31 Oeste 0 -- -- 77
2018-02-13 18:00:00 9.9 21 Oeste 36 Oeste 0 -- -- 73
2018-02-13 17:00:00 10.1 21 Oeste 35 Oeste 0 -- -- 71
2018-02-13 16:00:00 9.7 23 Oeste 32 Oeste 0 -- -- 71
2018-02-13 15:00:00 9.5 23 Oeste 32 Sudoeste 0 -- -- 71
2018-02-13 14:00:00 10.2 27 Oeste 36 Oeste 0 -- -- 68
2018-02-13 13:00:00 10 20 Oeste 31 Sudoeste 0 -- -- 68
2018-02-13 12:00:00 8.6 16 Oeste 27 Oeste 0 -- -- 71
2018-02-13 11:00:00 6.3 17 Oeste 23 Oeste 0 -- -- 79
2018-02-13 10:00:00 4 15 Oeste 20 Oeste 0 -- -- 86
2018-02-13 09:00:00 0.9 6 Sudoeste 18 Oeste 0 -- -- 89
2018-02-13 08:00:00 0.4 15 Oeste 21 Oeste 0 -- -- 92
2018-02-13 07:00:00 0.5 6 Noroeste 23 Oeste 0 -- -- 90
2018-02-13 06:00:00 1.4 15 Oeste 24 Oeste 0 -- -- 85
2018-02-13 05:00:00 1.1 15 Oeste 18 Oeste 0 -- -- 82
2018-02-13 04:00:00 2 10 Noroeste 13 Noroeste 0 -- -- 80
2018-02-13 03:00:00 2.5 12 Noroeste 19 Noroeste 0 -- -- 80
2018-02-13 02:00:00 3 14 Noroeste 19 Noroeste 0 -- -- 78
2018-02-13 01:00:00 3.1 12 Noroeste 17 Noroeste 0 -- -- 77
2018-02-13 00:00:00 3.6 13 Noroeste 20 Noroeste 0 -- -- 74
2018-02-12 23:00:00 4.6 13 Oeste 17 Noroeste 0 -- -- 69
2018-02-12 22:00:00 4.8 16 Noroeste 21 Noroeste 0 -- -- 67
2018-02-12 21:00:00 5.6 16 Noroeste 24 Oeste 0 -- -- 60
2018-02-12 20:00:00 8.2 9 Noroeste 13 Oeste 0 -- -- 44
2018-02-12 19:00:00 8.8 11 Norte 24 Noroeste 0 -- -- 43
2018-02-12 18:00:00 11.4 15 Norte 29 Noroeste 0 -- -- 38
2018-02-12 17:00:00 12.1 17 Noroeste 33 Noroeste 0 -- -- 36
2018-02-12 16:00:00 12.1 19 Noroeste 33 Noroeste 0 -- -- 36
2018-02-12 15:00:00 11.7 23 Noroeste 37 Noroeste 0 -- -- 36
2018-02-12 14:00:00 11.3 27 Norte 37 Norte 0 -- -- 43
2018-02-12 13:00:00 10.4 26 Noroeste 36 Noroeste 0 -- -- 49
2018-02-12 12:00:00 8.9 22 Noroeste 28 Norte 0 -- -- 64
2018-02-12 11:00:00 7.7 12 Noroeste 21 Norte 0 -- -- 67
2018-02-12 10:00:00 6.2 15 Norte 26 Norte 0 -- -- 74
2018-02-12 09:00:00 5.1 17 Norte 21 Norte 0 -- -- 79
2018-02-12 08:00:00 6.5 14 Noroeste 18 Noroeste 0 -- -- 86
2018-02-12 07:00:00 7 14 Noroeste 21 Norte 0 -- -- 91
2018-02-12 06:00:00 8.6 16 Noroeste 26 Noroeste 0 -- -- 99
2018-02-12 05:00:00 9.1 19 Noroeste 30 Oeste 0 -- -- 98
2018-02-12 04:00:00 9.4 22 Oeste 31 Oeste 0.2 -- -- 98
2018-02-12 03:00:00 9.4 22 Oeste 30 Oeste 0 -- -- 97
2018-02-12 02:00:00 9.5 18 Oeste 26 Oeste 0 -- -- 96
2018-02-12 01:00:00 9.6 19 Oeste 29 Oeste 0 -- -- 92
2018-02-12 00:00:00 9.6 17 Oeste 22 Oeste 0 -- -- 89
2018-02-11 23:00:00 9.9 18 Oeste 25 Oeste 0 -- -- 88
2018-02-11 22:00:00 10.3 18 Oeste 29 Oeste 0 -- -- 85
2018-02-11 21:00:00 10.7 24 Oeste 40 Oeste 0 -- -- 84
2018-02-11 20:00:00 11.5 20 Oeste 37 Oeste 0 -- -- 84
2018-02-11 19:00:00 12.7 27 Oeste 37 Oeste 0 -- -- 82
2018-02-11 18:00:00 15.4 24 Oeste 36 Oeste 0 -- -- 72
2018-02-11 17:00:00 15.7 24 Oeste 36 Oeste 0 -- -- 74
2018-02-11 16:00:00 15.9 22 Oeste 35 Oeste 0 -- -- 71
2018-02-11 15:00:00 14.7 18 Noroeste 27 Oeste 0 -- -- 75
2018-02-11 14:00:00 12.8 13 Oeste 21 Oeste 0 -- -- 81
2018-02-11 13:00:00 11.6 16 Oeste 21 Oeste 0 -- -- 82
2018-02-11 12:00:00 9.7 8 Sudoeste 12 Oeste 0 -- -- 84
2018-02-11 11:00:00 7.7 4 Sudoeste 10 Oeste 0 -- -- 86
2018-02-11 10:00:00 7 6 Oeste 9 Oeste 0 -- -- 88
2018-02-11 09:00:00 5.9 6 Oeste 11 Oeste 0 -- -- 86
2018-02-11 08:00:00 4.9 8 Oeste 13 Noroeste 0 -- -- 87
2018-02-11 07:00:00 4.8 12 Noroeste 14 Noroeste 0 -- -- 88
2018-02-11 06:00:00 4.8 6 Noroeste 14 Oeste 0 -- -- 84
2018-02-11 05:00:00 5.1 10 Oeste 13 Oeste 0 -- -- 80
2018-02-11 04:00:00 5.2 9 Noroeste 14 Noroeste 0 -- -- 78
2018-02-11 03:00:00 4.8 11 Oeste 14 Norte 0 -- -- 77
2018-02-11 02:00:00 4.9 14 Norte 15 Norte 0 -- -- 76
2018-02-11 01:00:00 5.1 13 Norte 15 Norte 0 -- -- 75
2018-02-11 00:00:00 6.1 9 Norte 20 Norte 0 -- -- 70
2018-02-10 23:00:00 6.3 11 Norte 16 Nordeste 0 -- -- 67
2018-02-10 22:00:00 6.5 15 Norte 19 Norte 0 -- -- 67
2018-02-10 21:00:00 6.8 11 Norte 19 Norte 0 -- -- 63
2018-02-10 20:00:00 8.6 10 Norte 36 Norte 0 -- -- 55
2018-02-10 19:00:00 9.2 16 Norte 31 Noroeste 0 -- -- 53
2018-02-10 18:00:00 11 27 Norte 37 Norte 0 -- -- 48
2018-02-10 17:00:00 11.5 28 Norte 39 Noroeste 0 -- -- 48
2018-02-10 16:00:00 11.5 21 Norte 35 Noroeste 0 -- -- 51
2018-02-10 15:00:00 10.9 22 Norte 35 Norte 0 -- -- 52
2018-02-10 14:00:00 10.2 25 Norte 37 Norte 0 -- -- 51
2018-02-10 13:00:00 9.3 23 Norte 36 Norte 0 -- -- 53
2018-02-10 12:00:00 8.5 22 Norte 30 Norte 0 -- -- 61
2018-02-10 11:00:00 6.9 20 Nordeste 29 Nordeste 0 -- -- 73
2018-02-10 10:00:00 3.3 13 Norte 17 Nordeste 0 -- -- 90
2018-02-10 09:00:00 1.9 12 Norte 18 Norte 0 -- -- 89
2018-02-10 08:00:00 1.5 18 Norte 20 Norte 0 -- -- 89
2018-02-10 07:00:00 2.2 9 Norte 18 Norte 0 -- -- 86
2018-02-10 06:00:00 2 9 Norte 14 Norte 0 -- -- 89
2018-02-10 05:00:00 1.8 12 Norte 20 Norte 0 -- -- 90
2018-02-10 04:00:00 2.7 15 Norte 21 Norte 0 -- -- 91
2018-02-10 03:00:00 3 21 Norte 22 Norte 0 -- -- 99
2018-02-10 02:00:00 3.7 14 Noroeste 18 Norte 0 -- -- 99
2018-02-10 01:00:00 3.4 10 Noroeste 16 Noroeste 0 -- -- 99
2018-02-10 00:00:00 4.2 11 Noroeste 13 Noroeste 0 -- -- 98
2018-02-09 23:00:00 5.2 8 Noroeste 12 Noroeste 0 -- -- 98
2018-02-09 22:00:00 5.3 10 Noroeste 13 Noroeste 0 -- -- 96
2018-02-09 21:00:00 5.6 10 Noroeste 14 Noroeste 0 -- -- 95
2018-02-09 20:00:00 6.3 8 Noroeste 11 Noroeste 0 -- -- 90
2018-02-09 19:00:00 7.2 8 Oeste 10 Noroeste 0 -- -- 86
2018-02-09 18:00:00 8.7 10 Noroeste 14 Noroeste 0 -- -- 80
2018-02-09 17:00:00 8.9 9 Oeste 15 Oeste 0 -- -- 81
2018-02-09 16:00:00 8.6 14 Oeste 22 Noroeste 0 -- -- 81
2018-02-09 15:00:00 7.2 13 Oeste 19 Noroeste 0 -- -- 85
2018-02-09 14:00:00 6.8 12 Oeste 17 Oeste 0 -- -- 85
2018-02-09 13:00:00 5.7 9 Oeste 14 Oeste 0 -- -- 85
2018-02-09 12:00:00 4.8 7 Oeste 12 Oeste 0 -- -- 88
2018-02-09 11:00:00 3.3 3 Noroeste 13 Norte 0 -- -- 92
2018-02-09 10:00:00 2.8 8 Noroeste 12 Oeste 0 -- -- 86
2018-02-09 09:00:00 2.7 8 Oeste 12 Sudoeste 0 -- -- 81
2018-02-09 08:00:00 2.8 5 Este 7 Noroeste 0 -- -- 70
2018-02-09 07:00:00 2.5 6 Norte 9 Norte 0 -- -- 68
2018-02-09 06:00:00 2.8 5 Sudoeste 9 Oeste 0 -- -- 64
2018-02-09 05:00:00 3.2 5 Oeste 7 Oeste 0 -- -- 59
2018-02-09 04:00:00 2.8 6 Noroeste 11 Noroeste 0 -- -- 58
2018-02-09 03:00:00 1.8 10 Noroeste 12 Noroeste 0 -- -- 64
2018-02-09 02:00:00 1.2 10 Noroeste 12 Noroeste 0 -- -- 65
2018-02-09 01:00:00 1.7 8 Norte 11 Noroeste 0 -- -- 62
2018-02-09 00:00:00 1.4 8 Norte 11 Norte 0 -- -- 63
2018-02-08 23:00:00 1.2 9 Norte 19 Nordeste 0 -- -- 64
2018-02-08 22:00:00 2.4 14 Nordeste 17 Nordeste 0 -- -- 61
2018-02-08 21:00:00 2.9 12 Nordeste 20 Norte 0 -- -- 59
2018-02-08 20:00:00 3.9 15 Norte 17 Norte 0 -- -- 56
2018-02-08 19:00:00 6.4 8 Norte 10 Norte 0 -- -- 48
2018-02-08 18:00:00 8.3 10 Norte 22 Nordeste 0 -- -- 43
2018-02-08 17:00:00 8.6 14 Norte 26 Nordeste 0 -- -- 41
2018-02-08 16:00:00 8.4 13 Norte 26 Nordeste 0 -- -- 41
2018-02-08 15:00:00 7.9 10 Nordeste 24 Norte 0 -- -- 45
2018-02-08 14:00:00 7.1 14 Norte 22 Norte 0 -- -- 48
2018-02-08 13:00:00 6.1 15 Nordeste 22 Norte 0 -- -- 48
2018-02-08 12:00:00 4.2 18 Nordeste 22 Nordeste 0 -- -- 57
2018-02-08 11:00:00 2.2 13 Nordeste 21 Nordeste 0 -- -- 65
2018-02-08 10:00:00 2.4 14 Nordeste 22 Nordeste 0 -- -- 63
2018-02-08 09:00:00 -1 14 Nordeste 19 Nordeste 0 -- -- 75
2018-02-08 08:00:00 -1.2 16 Nordeste 20 Nordeste 0 -- -- 75
2018-02-08 07:00:00 -0.9 17 Nordeste 22 Nordeste 0 -- -- 75
2018-02-08 06:00:00 -0.5 17 Nordeste 22 Nordeste 0 -- -- 73
2018-02-08 05:00:00 -0.5 17 Nordeste 21 Nordeste 0 -- -- 73
2018-02-08 04:00:00 -0.2 16 Nordeste 20 Nordeste 0 -- -- 71
2018-02-08 03:00:00 0.1 15 Nordeste 20 Nordeste 0 -- -- 70
2018-02-08 02:00:00 0.3 17 Nordeste 21 Nordeste 0 -- -- 70
2018-02-08 01:00:00 0.4 13 Nordeste 19 Nordeste 0 -- -- 69
2018-02-08 00:00:00 0.9 15 Nordeste 18 Nordeste 0 -- -- 66
2018-02-07 23:00:00 1 14 Nordeste 19 Nordeste 0 -- -- 66
2018-02-07 22:00:00 2.3 16 Nordeste 28 Nordeste 0 -- -- 61
2018-02-07 21:00:00 3.3 19 Nordeste 31 Nordeste 0 -- -- 56
2018-02-07 20:00:00 4.5 24 Nordeste 40 Nordeste 0 -- -- 50
2018-02-07 19:00:00 5.6 27 Nordeste 48 Nordeste 0 -- -- 48
2018-02-07 18:00:00 7 36 Nordeste 54 Nordeste 0 -- -- 44
2018-02-07 17:00:00 7.8 36 Nordeste 55 Nordeste 0 -- -- 42
2018-02-07 16:00:00 8.5 34 Nordeste 47 Nordeste 0 -- -- 43
2018-02-07 15:00:00 8.5 26 Nordeste 46 Nordeste 0 -- -- 44
2018-02-07 14:00:00 8.3 26 Nordeste 40 Nordeste 0 -- -- 50
2018-02-07 13:00:00 7.3 23 Nordeste 35 Nordeste 0 -- -- 55
2018-02-07 12:00:00 6.1 22 Nordeste 34 Norte 0 -- -- 61
2018-02-07 11:00:00 3.6 17 Norte 27 Norte 0 -- -- 67
2018-02-07 10:00:00 0.8 15 Norte 22 Norte 0 -- -- 74
2018-02-07 09:00:00 -1.2 12 Norte 16 Norte 0 -- -- 80
2018-02-07 08:00:00 -1.3 13 Norte 19 Norte 0 -- -- 78
2018-02-07 07:00:00 -1.6 14 Norte 17 Norte 0 -- -- 80
2018-02-07 06:00:00 -0.8 13 Nordeste 17 Nordeste 0 -- -- 77
2018-02-07 05:00:00 -0.2 13 Nordeste 18 Nordeste 0 -- -- 76
2018-02-07 04:00:00 0.5 17 Nordeste 25 Nordeste 0 -- -- 73
2018-02-07 03:00:00 -0.3 17 Nordeste 19 Nordeste 0 -- -- 75
2018-02-07 02:00:00 0.1 15 Norte 20 Norte 0 -- -- 73
2018-02-07 01:00:00 1 12 Norte 22 Norte 0 -- -- 69
2018-02-07 00:00:00 1.3 16 Norte 22 Norte 0 -- -- 68
2018-02-06 23:00:00 1.9 17 Norte 21 Norte 0 -- -- 65
2018-02-06 22:00:00 2 15 Norte 21 Norte 0 -- -- 64
2018-02-06 21:00:00 2.1 14 Norte 18 Norte 0 -- -- 65
2018-02-06 20:00:00 3.8 12 Nordeste 23 Norte 0 -- -- 58
2018-02-06 19:00:00 4.1 18 Nordeste 34 Norte 0 -- -- 55
2018-02-06 18:00:00 5.9 26 Nordeste 51 Norte 0 -- -- 49
2018-02-06 17:00:00 7.1 38 Norte 54 Norte 0 -- -- 45
2018-02-06 16:00:00 8.2 32 Norte 45 Norte 0 -- -- 47
2018-02-06 15:00:00 8 18 Norte 38 Norte 0 -- -- 46
2018-02-06 14:00:00 7.6 27 Norte 42 Norte 0 -- -- 50
2018-02-06 13:00:00 7.3 29 Norte 61 Norte 0 -- -- 46
2018-02-06 12:00:00 6.1 36 Norte 57 Nordeste 0 -- -- 48
2018-02-06 11:00:00 4.4 33 Norte 45 Norte 0 -- -- 57
2018-02-06 10:00:00 2.6 26 Norte 35 Norte 0 -- -- 63
2018-02-06 09:00:00 1.3 23 Norte 35 Norte 0 -- -- 67
2018-02-06 08:00:00 0.9 26 Norte 36 Norte 0 -- -- 68
2018-02-06 07:00:00 1.3 24 Norte 38 Norte 0 -- -- 68
2018-02-06 06:00:00 1.3 28 Norte 33 Norte 0 -- -- 69
2018-02-06 05:00:00 1.4 19 Norte 35 Norte 0 -- -- 71
2018-02-06 04:00:00 2.2 25 Norte 44 Norte 0 -- -- 74
2018-02-06 03:00:00 2.9 31 Norte 53 Norte 0 -- -- 69
2018-02-06 02:00:00 3.1 30 Nordeste 43 Nordeste 0 -- -- 68
2018-02-06 01:00:00 2.2 17 Norte 33 Norte 0 -- -- 77
2018-02-06 00:00:00 2.9 26 Norte 44 Norte 0 -- -- 74
2018-02-05 23:00:00 3.4 32 Norte 51 Nordeste 0 -- -- 70
2018-02-05 22:00:00 3.8 31 Nordeste 53 Nordeste 0 -- -- 69
2018-02-05 21:00:00 4.8 32 Nordeste 51 Nordeste 0 -- -- 64
2018-02-05 20:00:00 5 18 Norte 36 Nordeste 0 -- -- 67
2018-02-05 19:00:00 5.8 28 Nordeste 45 Nordeste 0 -- -- 66
2018-02-05 18:00:00 7.5 31 Nordeste 47 Nordeste 0 -- -- 58
2018-02-05 17:00:00 8.6 26 Nordeste 43 Nordeste 0 -- -- 54
2018-02-05 16:00:00 7.5 35 Nordeste 48 Norte 0 -- -- 58
2018-02-05 15:00:00 8.2 33 Norte 53 Norte 0 -- -- 59
2018-02-05 14:00:00 7.7 32 Norte 44 Norte 0 -- -- 62
2018-02-05 13:00:00 7.6 33 Norte 48 Norte 0 -- -- 62
2018-02-05 12:00:00 7 30 Norte 39 Norte 0 -- -- 62
2018-02-05 11:00:00 5.8 23 Norte 34 Norte 0 -- -- 67
2018-02-05 10:00:00 4.3 21 Norte 31 Norte 0 -- -- 75
2018-02-05 09:00:00 2.5 19 Norte 25 Norte 0 -- -- 79
2018-02-05 08:00:00 1.8 9 Norte 13 Norte 0 -- -- 79
2018-02-05 07:00:00 1.2 10 Noroeste 20 Norte 0 -- -- 80
2018-02-05 06:00:00 0.9 13 Nordeste 18 Nordeste 0 -- -- 83
2018-02-05 05:00:00 0.7 6 Norte 20 Norte 0 -- -- 83
2018-02-05 04:00:00 1.7 18 Norte 22 Norte 0 -- -- 80
2018-02-05 03:00:00 2.5 17 Norte 30 Norte 0 -- -- 77
2018-02-05 02:00:00 2.3 21 Norte 36 Norte 0 -- -- 80
2018-02-05 01:00:00 3.2 27 Norte 33 Norte 0 -- -- 77
2018-02-05 00:00:00 2.6 18 Norte 22 Norte 0 -- -- 80
2018-02-04 23:00:00 3.5 11 Norte 13 Norte 0 -- -- 78
2018-02-04 22:00:00 3.8 9 Nordeste 14 Nordeste 0 -- -- 77
2018-02-04 21:00:00 4 10 Nordeste 22 Norte 0 -- -- 71
2018-02-04 20:00:00 4.9 14 Norte 23 Norte 0 -- -- 69
2018-02-04 19:00:00 6 18 Norte 46 Norte 0 -- -- 58
2018-02-04 18:00:00 7.2 32 Norte 47 Nordeste 0 -- -- 53
2018-02-04 17:00:00 8.2 33 Norte 47 Norte 0 -- -- 53
2018-02-04 16:00:00 7.7 32 Norte 53 Norte 0 -- -- 53
2018-02-04 15:00:00 9.5 30 Norte 46 Nordeste 0 -- -- 51
2018-02-04 14:00:00 8.3 30 Norte 42 Norte 0 -- -- 56
2018-02-04 13:00:00 7.6 31 Norte 41 Norte 0 -- -- 58
2018-02-04 12:00:00 6.5 34 Norte 44 Norte 0 -- -- 64
2018-02-04 11:00:00 5.5 23 Norte 33 Norte 0 -- -- 71
2018-02-04 10:00:00 3.7 17 Norte 31 Norte 0 -- -- 78
2018-02-04 09:00:00 2.7 26 Norte 33 Norte 0 -- -- 80
2018-02-04 08:00:00 3.7 31 Norte 39 Noroeste 0 -- -- 78
2018-02-04 07:00:00 3.9 26 Norte 33 Norte 0 -- -- 79
2018-02-04 06:00:00 2.8 17 Noroeste 22 Noroeste 0 -- -- 91
2018-02-04 05:00:00 3.2 15 Noroeste 18 Noroeste 0 -- -- 93
2018-02-04 04:00:00 4 14 Noroeste 26 Noroeste 0 -- -- 91
2018-02-04 03:00:00 4.3 14 Noroeste 21 Noroeste 0 -- -- 90
2018-02-04 02:00:00 5.6 19 Noroeste 24 Noroeste 0 -- -- 88
2018-02-04 01:00:00 5.9 19 Noroeste 30 Noroeste 0 -- -- 90
2018-02-04 00:00:00 6.8 22 Noroeste 32 Noroeste 0 -- -- 91
2018-02-03 23:00:00 7.1 21 Oeste 33 Oeste 0 -- -- 94
2018-02-03 22:00:00 7.7 22 Oeste 31 Oeste 0 -- -- 86
2018-02-03 21:00:00 8.2 17 Oeste 25 Oeste 0 -- -- 82
2018-02-03 20:00:00 8.6 18 Oeste 35 Oeste 0 -- -- 78
2018-02-03 19:00:00 9.1 19 Oeste 24 Oeste 0 -- -- 74
2018-02-03 18:00:00 9.9 14 Oeste 26 Oeste 0 -- -- 63
2018-02-03 17:00:00 10.5 18 Oeste 24 Oeste 0 -- -- 54
2018-02-03 16:00:00 10.4 20 Noroeste 29 Noroeste 0 -- -- 58
2018-02-03 15:00:00 10.7 10 Noroeste 20 Noroeste 0 -- -- 55
2018-02-03 14:00:00 9.4 12 Norte 20 Oeste 0 -- -- 59
2018-02-03 13:00:00 8 12 Noroeste 19 Noroeste 0 -- -- 56
2018-02-03 12:00:00 6.4 6 Noroeste 12 Noroeste 0 -- -- 62
2018-02-03 11:00:00 3.4 5 Noroeste 10 Noroeste 0 -- -- 72
2018-02-03 10:00:00 1.4 4 Noroeste 14 Noroeste 0 -- -- 74
2018-02-03 09:00:00 -0.2 13 Noroeste 14 Noroeste 0 -- -- 77
2018-02-03 08:00:00 1.4 9 Norte 13 Noroeste 0 -- -- 68
2018-02-03 07:00:00 0 12 Noroeste 17 Noroeste 0 -- -- 77
2018-02-03 06:00:00 0.6 12 Noroeste 15 Noroeste 0 -- -- 73
2018-02-03 05:00:00 1.7 6 Noroeste 13 Noroeste 0 -- -- 68
2018-02-03 04:00:00 1.3 10 Noroeste 15 Noroeste 0 -- -- 72
2018-02-03 03:00:00 1.6 5 Noroeste 11 Norte 0 -- -- 70
2018-02-03 02:00:00 2.7 2 Oeste 13 Nordeste 0 -- -- 65
2018-02-03 01:00:00 2.8 13 Nordeste 21 Nordeste 0 -- -- 67
2018-02-03 00:00:00 2.6 13 Nordeste 21 Norte 0 -- -- 68
2018-02-02 23:00:00 3 14 Noroeste 21 Noroeste 0 -- -- 64
2018-02-02 22:00:00 4.7 5 Norte 21 Norte 0 -- -- 55
2018-02-02 21:00:00 4 20 Norte 22 Norte 0 -- -- 62
2018-02-02 20:00:00 5 10 Norte 19 Norte 0 -- -- 56
2018-02-02 19:00:00 5.9 19 Norte 29 Norte 0 -- -- 55
2018-02-02 18:00:00 8.3 24 Norte 35 Norte 0 -- -- 45
2018-02-02 17:00:00 9.2 23 Nordeste 37 Nordeste 0 -- -- 44
2018-02-02 16:00:00 9.5 22 Norte 38 Norte 0 -- -- 45
2018-02-02 15:00:00 9.2 25 Norte 40 Norte 0 -- -- 48
2018-02-02 14:00:00 8.7 28 Norte 41 Norte 0 -- -- 49
2018-02-02 13:00:00 8 25 Norte 38 Norte 0 -- -- 52
2018-02-02 12:00:00 7.2 25 Norte 39 Nordeste 0 -- -- 54
2018-02-02 11:00:00 5.8 18 Nordeste 30 Nordeste 0 -- -- 61
2018-02-02 10:00:00 3.7 13 Norte 19 Norte 0 -- -- 69
2018-02-02 09:00:00 2.1 13 Norte 22 Norte 0 -- -- 75
2018-02-02 08:00:00 1.8 13 Norte 21 Norte 0 -- -- 76
2018-02-02 07:00:00 1.9 15 Norte 21 Norte 0 -- -- 77
2018-02-02 06:00:00 1.8 14 Norte 21 Norte 0 -- -- 77
2018-02-02 05:00:00 1.2 4 Noroeste 15 Noroeste 0 -- -- 79
2018-02-02 04:00:00 1.4 10 Norte 24 Norte 0 -- -- 79
2018-02-02 03:00:00 2.9 19 Norte 31 Norte 0 -- -- 74
2018-02-02 02:00:00 2.7 18 Norte 33 Norte 0 -- -- 75
2018-02-02 01:00:00 3.4 29 Norte 38 Noroeste 0 -- -- 72
2018-02-02 00:00:00 3.4 24 Noroeste 36 Noroeste 0 -- -- 73
2018-02-01 23:00:00 4.8 27 Noroeste 44 Noroeste 0 -- -- 67
2018-02-01 22:00:00 5.6 31 Norte 44 Norte 0 -- -- 67
2018-02-01 21:00:00 6.6 36 Norte 53 Noroeste 0 -- -- 66
2018-02-01 20:00:00 7.4 37 Norte 50 Norte 0 -- -- 62
2018-02-01 19:00:00 8.5 33 Norte 48 Norte 0 -- -- 54
2018-02-01 18:00:00 9.1 30 Norte 51 Norte 0 -- -- 53
2018-02-01 17:00:00 11 36 Norte 49 Norte 0 -- -- 50
2018-02-01 16:00:00 12.3 28 Norte 42 Noroeste 0 -- -- 49
2018-02-01 15:00:00 12.3 31 Noroeste 45 Norte 0 -- -- 54
2018-02-01 14:00:00 12.2 31 Norte 40 Norte 0 -- -- 61
2018-02-01 13:00:00 11.5 29 Norte 43 Norte 0 -- -- 67
2018-02-01 12:00:00 9.5 14 Noroeste 22 Noroeste 0 -- -- 78
2018-02-01 11:00:00 7.3 14 Noroeste 18 Noroeste 0 -- -- 82
2018-02-01 10:00:00 4.7 14 Noroeste 17 Noroeste 0 -- -- 87
2018-02-01 09:00:00 4.2 9 Noroeste 16 Noroeste 0 -- -- 86
2018-02-01 08:00:00 3.8 14 Noroeste 17 Noroeste 0 -- -- 89
2018-02-01 07:00:00 4.4 10 Noroeste 13 Noroeste 0 -- -- 87
2018-02-01 06:00:00 5.1 8 Sudoeste 10 Sudoeste 0 -- -- 87
2018-02-01 05:00:00 5.2 4 Sudoeste 8 Sudoeste 0 -- -- 84
2018-02-01 04:00:00 6.5 7 Norte 18 Noroeste 0 -- -- 79
2018-02-01 03:00:00 6.7 17 Norte 18 Noroeste 0 -- -- 79
2018-02-01 02:00:00 7.7 14 Norte 15 Norte 0 -- -- 72
2018-02-01 01:00:00 8.7 4 Oeste 5 Oeste 0 -- -- 68
2018-02-01 00:00:00 8.1 0 Calma 8 Noroeste 0 -- -- 73
2018-01-31 23:00:00 9.6 0 Calma 10 Sudeste 0 -- -- 68
2018-01-31 22:00:00 10 6 Sudeste 10 Sudeste 0 -- -- 66
2018-01-31 21:00:00 9.4 3 Este 9 Sudeste 0 -- -- 67
2018-01-31 20:00:00 10.5 7 Norte 13 Norte 0 -- -- 64
2018-01-31 19:00:00 9.7 13 Norte 15 Norte 0 -- -- 67
2018-01-31 18:00:00 12.7 9 Norte 12 Norte 0 -- -- 59
2018-01-31 17:00:00 14 7 Nordeste 16 Norte 0 -- -- 55
2018-01-31 16:00:00 14.2 6 Norte 14 Norte 0 -- -- 62
2018-01-31 15:00:00 13.4 7 Nordeste 22 Nordeste 0 -- -- 66
2018-01-31 14:00:00 12.8 12 Nordeste 28 Nordeste 0 -- -- 68
2018-01-31 13:00:00 11.9 22 Este 31 Este 0 -- -- 69
2018-01-31 12:00:00 10.6 23 Este 33 Este 0 -- -- 71
2018-01-31 11:00:00 8.9 26 Este 36 Nordeste 0 -- -- 77
2018-01-31 10:00:00 6.4 24 Nordeste 34 Nordeste 0 -- -- 85
2018-01-31 09:00:00 5.5 15 Este 34 Nordeste 0 -- -- 86
2018-01-31 08:00:00 4.9 22 Nordeste 29 Este 0 -- -- 89
2018-01-31 07:00:00 5.4 13 Este 17 Este 0 -- -- 84
2018-01-31 06:00:00 5.8 11 Este 25 Este 0 -- -- 81
2018-01-31 05:00:00 6 18 Este 30 Este 0 -- -- 78
2018-01-31 04:00:00 6.5 24 Nordeste 32 Nordeste 0 -- -- 74
2018-01-31 03:00:00 6.6 21 Nordeste 27 Este 0 -- -- 73
2018-01-31 02:00:00 6.8 20 Este 28 Nordeste 0 -- -- 73
2018-01-31 01:00:00 7.7 23 Nordeste 31 Este 0 -- -- 71
2018-01-31 00:00:00 7 19 Este 26 Este 0 -- -- 72
2018-01-30 23:00:00 8.5 17 Nordeste 31 Este 0 -- -- 64
2018-01-30 22:00:00 8.5 19 Este 28 Este 0 -- -- 65
2018-01-30 21:00:00 9 19 Este 25 Este 0 -- -- 68
2018-01-30 20:00:00 9.4 14 Este 24 Este 0 -- -- 68
2018-01-30 19:00:00 9.1 15 Nordeste 19 Este 0 -- -- 69
2018-01-30 18:00:00 12.2 15 Este 30 Este 0 -- -- 61
2018-01-30 17:00:00 13.4 25 Este 35 Nordeste 0 -- -- 57
2018-01-30 16:00:00 13.9 26 Este 35 Este 0 -- -- 57
2018-01-30 15:00:00 14.3 21 Este 40 Este 0 -- -- 58
2018-01-30 14:00:00 13.7 24 Este 40 Este 0 -- -- 57
2018-01-30 13:00:00 12.7 19 Este 33 Este 0 -- -- 64
2018-01-30 12:00:00 11 20 Este 35 Este 0 -- -- 69
2018-01-30 11:00:00 8.9 26 Este 41 Este 0 -- -- 77
2018-01-30 10:00:00 7.1 22 Este 30 Este 0 -- -- 84
2018-01-30 09:00:00 5.1 16 Este 30 Este 0 -- -- 89
2018-01-30 08:00:00 5.1 23 Nordeste 35 Nordeste 0 -- -- 91
2018-01-30 07:00:00 5.3 20 Este 29 Nordeste 0 -- -- 89
2018-01-30 06:00:00 5.4 23 Este 32 Este 0 -- -- 89
2018-01-30 05:00:00 7 27 Este 37 Este 0 -- -- 82
2018-01-30 04:00:00 6.6 23 Nordeste 33 Nordeste 0 -- -- 83
2018-01-30 03:00:00 7.1 24 Nordeste 32 Nordeste 0 -- -- 82
2018-01-30 02:00:00 7.1 21 Este 27 Este 0 -- -- 82
2018-01-30 01:00:00 7.5 19 Este 33 Este 0 -- -- 79
2018-01-30 00:00:00 8.2 26 Este 35 Este 0 -- -- 77
2018-01-29 23:00:00 8.6 24 Este 32 Este 0 -- -- 78
2018-01-29 22:00:00 8.7 20 Nordeste 27 Nordeste 0 -- -- 77
2018-01-29 21:00:00 9.3 21 Nordeste 26 Nordeste 0 -- -- 75
2018-01-29 20:00:00 10.7 15 Este 29 Nordeste 0 -- -- 67
2018-01-29 19:00:00 11.3 18 Nordeste 30 Nordeste 0 -- -- 64
2018-01-29 18:00:00 13.7 26 Este 41 Este 0 -- -- 56
2018-01-29 17:00:00 14.3 25 Nordeste 40 Nordeste 0 -- -- 58
2018-01-29 16:00:00 14.7 28 Este 39 Este 0 -- -- 59
2018-01-29 15:00:00 14.6 28 Este 47 Nordeste 0 -- -- 61
2018-01-29 14:00:00 13.9 36 Este 51 Este 0 -- -- 62
2018-01-29 13:00:00 13.5 27 Nordeste 46 Este 0 -- -- 67
2018-01-29 12:00:00 12.5 30 Este 43 Este 0 -- -- 70
2018-01-29 11:00:00 10.8 24 Este 41 Nordeste 0 -- -- 73
2018-01-29 10:00:00 9.1 24 Nordeste 42 Este 0 -- -- 77
2018-01-29 09:00:00 7.7 22 Nordeste 49 Este 0 -- -- 81
2018-01-29 08:00:00 8.4 35 Este 51 Este 0 -- -- 77
2018-01-29 07:00:00 8.8 32 Este 57 Este 0 -- -- 76
2018-01-29 06:00:00 8.6 37 Este 54 Este 0 -- -- 79
2018-01-29 05:00:00 8.8 36 Este 50 Este 0 -- -- 78
2018-01-29 04:00:00 9 33 Este 46 Este 0 -- -- 77
2018-01-29 03:00:00 9 33 Este 44 Este 0 -- -- 78
2018-01-29 02:00:00 9.3 30 Este 48 Este 0 -- -- 77
2018-01-29 01:00:00 8.3 28 Este 39 Este 0 -- -- 84
2018-01-29 00:00:00 7.2 22 Nordeste 30 Nordeste 0 -- -- 88
2018-01-28 23:00:00 7.2 18 Nordeste 26 Nordeste 0 -- -- 86
2018-01-28 22:00:00 7.7 16 Nordeste 21 Nordeste 0 -- -- 83
2018-01-28 21:00:00 8.6 14 Nordeste 33 Este 0 -- -- 77
2018-01-28 20:00:00 10 27 Este 42 Este 0 -- -- 71
2018-01-28 19:00:00 11.1 30 Este 41 Este 0 -- -- 64
2018-01-28 18:00:00 12.2 28 Este 56 Este 0 -- -- 61
2018-01-28 17:00:00 13.1 38 Este 66 Este 0 -- -- 56
2018-01-28 16:00:00 13.2 35 Este 61 Este 0 -- -- 60
2018-01-28 15:00:00 12.9 33 Este 53 Nordeste 0 -- -- 60
2018-01-28 14:00:00 11.7 21 Nordeste 32 Nordeste 0 -- -- 56
2018-01-28 13:00:00 10.6 24 Nordeste 31 Nordeste 0 -- -- 56
2018-01-28 12:00:00 8.9 18 Nordeste 28 Nordeste 0 -- -- 62
2018-01-28 11:00:00 6.7 15 Nordeste 22 Nordeste 0 -- -- 63
2018-01-28 10:00:00 4.4 17 Nordeste 28 Nordeste 0 -- -- 71
2018-01-28 09:00:00 2.8 19 Nordeste 27 Nordeste 0 -- -- 75
2018-01-28 08:00:00 2.2 14 Nordeste 28 Norte 0 -- -- 78
2018-01-28 07:00:00 2.2 20 Norte 27 Norte 0 -- -- 79
2018-01-28 06:00:00 2.4 17 Nordeste 23 Nordeste 0 -- -- 78
2018-01-28 05:00:00 2.2 12 Norte 23 Nordeste 0 -- -- 77
2018-01-28 04:00:00 3.4 21 Nordeste 27 Nordeste 0 -- -- 74
2018-01-28 03:00:00 4 17 Nordeste 25 Nordeste 0 -- -- 72
2018-01-28 02:00:00 4 15 Nordeste 21 Nordeste 0 -- -- 72
2018-01-28 01:00:00 5.1 17 Nordeste 27 Nordeste 0 -- -- 68
2018-01-28 00:00:00 5.8 19 Nordeste 37 Nordeste 0 -- -- 68
2018-01-27 23:00:00 6.8 23 Nordeste 37 Nordeste 0 -- -- 66
2018-01-27 22:00:00 7.6 24 Nordeste 44 Nordeste 0 -- -- 63
2018-01-27 21:00:00 7.8 23 Nordeste 37 Nordeste 0 -- -- 60
2018-01-27 20:00:00 7.9 24 Nordeste 37 Nordeste 0 -- -- 60
2018-01-27 19:00:00 8.6 27 Nordeste 52 Nordeste 0 -- -- 56
2018-01-27 18:00:00 10 32 Nordeste 44 Nordeste 0 -- -- 52
2018-01-27 17:00:00 11.1 26 Nordeste 37 Nordeste 0 -- -- 52
2018-01-27 16:00:00 11 29 Norte 43 Norte 0 -- -- 57
2018-01-27 15:00:00 10.2 32 Norte 41 Norte 0 -- -- 58
2018-01-27 14:00:00 10.3 19 Norte 28 Norte 0 -- -- 58
2018-01-27 13:00:00 9.3 22 Norte 35 Nordeste 0 -- -- 66
2018-01-27 12:00:00 8 25 Norte 33 Norte 0 -- -- 68
2018-01-27 11:00:00 6.1 17 Norte 30 Norte 0 -- -- 77
2018-01-27 10:00:00 4.3 14 Norte 21 Norte 0 -- -- 83
2018-01-27 09:00:00 2.5 17 Norte 27 Norte 0 -- -- 88
2018-01-27 08:00:00 2.6 10 Este 26 Norte 0 -- -- 86
2018-01-27 07:00:00 3 19 Norte 30 Norte 0 -- -- 85
2018-01-27 06:00:00 3.9 26 Norte 40 Norte 0 -- -- 81
2018-01-27 05:00:00 3.7 22 Norte 27 Norte 0 -- -- 83
2018-01-27 04:00:00 3.6 21 Norte 26 Norte 0 -- -- 83
2018-01-27 03:00:00 2.5 13 Norte 23 Norte 0 -- -- 88
2018-01-27 02:00:00 3.7 18 Norte 23 Norte 0 -- -- 85
2018-01-27 01:00:00 3.5 16 Norte 26 Noroeste 0 -- -- 85
2018-01-27 00:00:00 4.1 18 Norte 27 Norte 0 -- -- 82
2018-01-26 23:00:00 5.1 24 Norte 29 Norte 0 -- -- 80
2018-01-26 22:00:00 6 26 Norte 35 Norte 0 -- -- 75
2018-01-26 21:00:00 6.4 21 Norte 29 Norte 0 -- -- 71
2018-01-26 20:00:00 5.6 14 Noroeste 24 Noroeste 0 -- -- 72
2018-01-26 19:00:00 6.9 14 Noroeste 33 Norte 0 -- -- 69
2018-01-26 18:00:00 8.8 19 Norte 41 Norte 0 -- -- 62
2018-01-26 17:00:00 9.6 34 Norte 53 Norte 0 -- -- 57
2018-01-26 16:00:00 10.3 37 Norte 48 Norte 0 -- -- 59
2018-01-26 15:00:00 10.3 32 Norte 42 Norte 0 -- -- 58
2018-01-26 14:00:00 10 33 Norte 54 Norte 0 -- -- 58
2018-01-26 13:00:00 9.1 40 Norte 50 Norte 0.2 -- -- 63
2018-01-26 12:00:00 8.2 24 Norte 38 Norte 0 -- -- 69
2018-01-26 11:00:00 5.7 19 Noroeste 24 Noroeste 0 -- -- 81
2018-01-26 10:00:00 3.6 11 Noroeste 23 Noroeste 0 -- -- 88
2018-01-26 09:00:00 2.5 18 Noroeste 31 Noroeste 0 -- -- 87
2018-01-26 08:00:00 2.8 24 Noroeste 32 Noroeste 0 -- -- 87
2018-01-26 07:00:00 1.5 28 Noroeste 32 Noroeste 0 -- -- 95
2018-01-26 06:00:00 2.2 20 Noroeste 30 Noroeste 0 -- -- 90
2018-01-26 05:00:00 2 21 Noroeste 26 Noroeste 0 -- -- 91
2018-01-26 04:00:00 1.6 15 Noroeste 21 Noroeste 0 -- -- 94
2018-01-26 03:00:00 2.2 18 Noroeste 21 Noroeste 0 -- -- 91
2018-01-26 02:00:00 2.6 14 Noroeste 24 Noroeste 0 -- -- 89
2018-01-26 01:00:00 3 19 Noroeste 26 Noroeste 0 -- -- 89
2018-01-26 00:00:00 4.1 23 Noroeste 27 Noroeste 0 -- -- 88
2018-01-25 23:00:00 4 13 Noroeste 25 Noroeste 0 -- -- 85
2018-01-25 22:00:00 4.8 21 Noroeste 36 Noroeste 0 -- -- 82
2018-01-25 21:00:00 5.9 22 Noroeste 28 Norte 0 -- -- 84
2018-01-25 20:00:00 5.3 17 Noroeste 23 Noroeste 0 -- -- 93
2018-01-25 19:00:00 7.1 19 Noroeste 44 Noroeste 0 -- -- 86
2018-01-25 18:00:00 8.1 36 Noroeste 46 Noroeste 0 -- -- 81
2018-01-25 17:00:00 8.2 30 Oeste 50 Oeste 0 -- -- 84
2018-01-25 16:00:00 9 24 Oeste 35 Oeste 0.4 -- -- 100
2018-01-25 15:00:00 8.8 19 Oeste 27 Oeste 0 -- -- 100
2018-01-25 14:00:00 8.7 13 Sudoeste 22 Oeste 0.6 -- -- 100
2018-01-25 13:00:00 7.5 18 Sudoeste 28 Sur 0.6 -- -- 100
2018-01-25 12:00:00 7 21 Sur 32 Sudoeste 0.4 -- -- 100
2018-01-25 11:00:00 6.8 19 Sur 27 Sur 0.6 -- -- 100
2018-01-25 10:00:00 6.2 13 Sur 21 Sur 1.8 -- -- 100
2018-01-25 09:00:00 5.6 11 Sur 19 Sur 1.4 -- -- 100
2018-01-25 08:00:00 5.2 15 Sur 19 Sur 0 -- -- 100
2018-01-25 07:00:00 4.5 13 Sur 19 Sur 0 -- -- 100
2018-01-25 06:00:00 4.7 15 Sur 22 Sur 0 -- -- 100
2018-01-25 05:00:00 3.7 10 Sur 14 Sur 0 -- -- 100
2018-01-25 04:00:00 4.2 5 Sur 10 Sur 0.2 -- -- 100
2018-01-25 03:00:00 4.8 7 Sur 10 Sur 0 -- -- 100
2018-01-25 02:00:00 5.2 8 Sur 9 Sur 0 -- -- 100
2018-01-25 01:00:00 6.1 4 Sur 6 Sur 0 -- -- 99
2018-01-25 00:00:00 6.4 4 Sur 10 Sudoeste 0 -- -- 98
2018-01-24 23:00:00 7.1 6 Sudoeste 9 Sudoeste 0 -- -- 98
2018-01-24 22:00:00 7 7 Oeste 12 Noroeste 0 -- -- 98
2018-01-24 21:00:00 7.9 9 Sudoeste 10 Sudoeste 0 -- -- 98
2018-01-24 20:00:00 8.2 6 Sudoeste 6 Sudoeste 0 -- -- 97
2018-01-24 19:00:00 8.9 5 Sudoeste 6 Sudoeste 0 -- -- 94
2018-01-24 18:00:00 10.5 6 Noroeste 7 Noroeste 0 -- -- 89
2018-01-24 17:00:00 11.7 2 Sudoeste 9 Sur 0 -- -- 87
2018-01-24 16:00:00 10.3 6 Sur 9 Sur 0 -- -- 93
2018-01-24 15:00:00 9.3 4 Sur 7 Sur 0 -- -- 97
2018-01-24 14:00:00 8.5 3 Sur 9 Sudeste 0 -- -- 99
2018-01-24 13:00:00 7.3 4 Sudeste 8 Sudeste 0 -- -- 99
2018-01-24 12:00:00 6 2 Este 5 Este 0 -- -- 100
2018-01-24 11:00:00 4.2 2 Este 6 Nordeste 0 -- -- 100
2018-01-24 10:00:00 3.6 6 Nordeste 12 Este 0 -- -- 100
2018-01-24 09:00:00 3.6 7 Este 9 Nordeste 0 -- -- 97
2018-01-24 08:00:00 4.9 5 Este 8 Este 0 -- -- 98
2018-01-24 07:00:00 4.8 3 Nordeste 6 Nordeste 0 -- -- 97
2018-01-24 06:00:00 6.3 3 Sudeste 6 Sudeste 0 -- -- 96
2018-01-24 05:00:00 6.1 0 Calma 3 Este 0 -- -- 93
2018-01-24 04:00:00 5.3 2 Norte 13 Nordeste 0 -- -- 94
2018-01-24 03:00:00 5.7 12 Nordeste 13 Nordeste 0 -- -- 91
2018-01-24 02:00:00 6 13 Nordeste 14 Nordeste 0 -- -- 90
2018-01-24 01:00:00 6.3 8 Norte 14 Nordeste 0 -- -- 93
2018-01-24 00:00:00 7 12 Nordeste 14 Nordeste 0 -- -- 95
2018-01-23 23:00:00 8 7 Norte 11 Norte 0 -- -- 92
2018-01-23 22:00:00 8.5 8 Norte 9 Norte 0 -- -- 90
2018-01-23 21:00:00 8.8 2 Noroeste -- -- 0 -- -- 90
2018-01-23 20:00:00 8.3 3 Oeste 5 Oeste 0 -- -- 93
2018-01-23 19:00:00 8.8 3 Oeste 8 Oeste 0 -- -- 91
2018-01-23 18:00:00 11.3 4 Oeste 12 Noroeste 0 -- -- 85
2018-01-23 17:00:00 12.4 6 Noroeste 9 Noroeste 0 -- -- 82
2018-01-23 16:00:00 12.6 9 Oeste 13 Oeste 0 -- -- 83
2018-01-23 15:00:00 12.9 8 Este 13 Este 0 -- -- 75
2018-01-23 14:00:00 11.4 6 Este 13 Este 0 -- -- 80
2018-01-23 13:00:00 9.8 10 Nordeste 19 Este 0 -- -- 89
2018-01-23 12:00:00 7.9 10 Este 18 Este 0 -- -- 100
2018-01-23 11:00:00 5.1 5 Este 11 Este 0 -- -- 100
2018-01-23 10:00:00 2.6 7 Este 10 Este 0 -- -- 100
2018-01-23 09:00:00 1.6 0 Calma 5 Noroeste 0 -- -- 99
2018-01-23 08:00:00 2.2 4 Este 14 Este 0 -- -- 99
2018-01-23 07:00:00 2.6 10 Este 14 Este 0 -- -- 98
2018-01-23 06:00:00 4.7 6 Este 11 Este 0 -- -- 97
2018-01-23 05:00:00 6.2 7 Este 10 Este 0 -- -- 97
2018-01-23 04:00:00 7.1 0 Calma 4 Sur 0 -- -- 98
2018-01-23 03:00:00 7 5 Sur 7 Sur 0 -- -- 96
2018-01-23 02:00:00 8.2 2 Noroeste 5 Noroeste 0 -- -- 92
2018-01-23 01:00:00 8.4 3 Oeste 6 Oeste 0 -- -- 92
2018-01-23 00:00:00 9.1 4 Noroeste 9 Norte 0 -- -- 88
2018-01-22 23:00:00 9.3 4 Oeste 9 Noroeste 0 -- -- 85
2018-01-22 22:00:00 9.9 6 Oeste 11 Noroeste 0 -- -- 83
2018-01-22 21:00:00 9.9 12 Noroeste 15 Noroeste 0 -- -- 82
2018-01-22 20:00:00 11 13 Noroeste 21 Oeste 0 -- -- 78
2018-01-22 19:00:00 11.7 17 Oeste 19 Oeste 0 -- -- 75
2018-01-22 18:00:00 14.8 11 Oeste 18 Oeste 0 -- -- 67
2018-01-22 17:00:00 15.6 12 Oeste 16 Noroeste 0 -- -- 67
2018-01-22 16:00:00 14.7 10 Noroeste 17 Noroeste 0 -- -- 73
2018-01-22 15:00:00 13.4 9 Noroeste 17 Oeste 0 -- -- 76
2018-01-22 14:00:00 12.6 11 Oeste 16 Oeste 0 -- -- 79
2018-01-22 13:00:00 12.3 4 Oeste 9 Noroeste 0 -- -- 78
2018-01-22 12:00:00 10.4 3 Norte 12 Noroeste 0 -- -- 86
2018-01-22 11:00:00 8.6 5 Noroeste 12 Nordeste 0 -- -- 92
2018-01-22 10:00:00 8 7 Nordeste 18 Nordeste 0 -- -- 97
2018-01-22 09:00:00 5.6 7 Norte 10 Noroeste 0 -- -- 100
2018-01-22 08:00:00 5.2 9 Noroeste 11 Noroeste 0 -- -- 99
2018-01-22 07:00:00 6.1 8 Noroeste 12 Noroeste 0 -- -- 99
2018-01-22 06:00:00 6.4 8 Noroeste 10 Noroeste 0 -- -- 99
2018-01-22 05:00:00 6.6 8 Noroeste 12 Noroeste 0 -- -- 98
2018-01-22 04:00:00 7 8 Noroeste 10 Noroeste 0 -- -- 96
2018-01-22 03:00:00 7.7 6 Noroeste 7 Noroeste 0 -- -- 95
2018-01-22 02:00:00 8.2 -- -- -- -- 0 -- -- 93
2018-01-22 01:00:00 9 5 Norte 6 Norte 0 -- -- 91
2018-01-22 00:00:00 9.4 4 Noroeste 11 Noroeste 0 -- -- 93